sensor_id;sensor_type;location;lat;lon;timestamp;P1;durP1;ratioP1;P2;durP2;ratioP2
12650;SDS011;6390;49.400;8.670;2022-07-01T03:02:04;0.82;;;0.80;;
12650;SDS011;6390;49.400;8.670;2022-07-01T03:04:31;0.80;;;0.80;;
12650;SDS011;6390;49.400;8.670;2022-07-01T03:06:57;1.65;;;0.95;;
12650;SDS011;6390;49.400;8.670;2022-07-01T03:09:23;1.00;;;0.90;;
12650;SDS011;6390;49.400;8.670;2022-07-01T03:11:49;0.60;;;0.57;;
12650;SDS011;6390;49.400;8.670;2022-07-01T03:14:15;0.98;;;0.85;;
12650;SDS011;6390;49.400;8.670;2022-07-01T03:16:41;0.88;;;0.88;;
12650;SDS011;6390;49.400;8.670;2022-07-01T03:19:08;0.90;;;0.60;;
12650;SDS011;6390;49.400;8.670;2022-07-01T03:21:34;0.77;;;0.77;;
12650;SDS011;6390;49.400;8.670;2022-07-01T03:24:00;0.80;;;0.80;;
12650;SDS011;6390;49.400;8.670;2022-07-01T03:26:26;0.98;;;0.82;;
12650;SDS011;6390;49.400;8.670;2022-07-01T03:28:52;1.25;;;0.90;;
12650;SDS011;6390;49.400;8.670;2022-07-01T03:31:18;0.80;;;0.80;;
12650;SDS011;6390;49.400;8.670;2022-07-01T03:33:44;1.13;;;0.90;;
12650;SDS011;6390;49.400;8.670;2022-07-01T03:36:11;1.80;;;0.90;;
12650;SDS011;6390;49.400;8.670;2022-07-01T03:38:38;0.90;;;0.90;;
12650;SDS011;6390;49.400;8.670;2022-07-01T03:41:04;1.65;;;0.80;;
12650;SDS011;6390;49.400;8.670;2022-07-01T03:43:30;1.00;;;0.90;;
12650;SDS011;6390;49.400;8.670;2022-07-01T03:45:56;1.00;;;0.90;;
12650;SDS011;6390;49.400;8.670;2022-07-01T03:48:22;1.25;;;0.80;;
12650;SDS011;6390;49.400;8.670;2022-07-01T03:50:50;0.90;;;0.90;;
12650;SDS011;6390;49.400;8.670;2022-07-01T03:53:16;1.13;;;1.00;;
12650;SDS011;6390;49.400;8.670;2022-07-01T03:56:01;3.20;;;1.25;;
12650;SDS011;6390;49.400;8.670;2022-07-01T03:58:27;0.73;;;0.73;;
12650;SDS011;6390;49.400;8.670;2022-07-01T04:00:54;0.93;;;0.82;;
12650;SDS011;6390;49.400;8.670;2022-07-01T04:03:20;1.75;;;0.80;;
12650;SDS011;6390;49.400;8.670;2022-07-01T04:05:46;1.20;;;0.80;;
12650;SDS011;6390;49.400;8.670;2022-07-01T04:08:12;0.70;;;0.70;;
12650;SDS011;6390;49.400;8.670;2022-07-01T04:10:39;1.52;;;0.90;;
12650;SDS011;6390;49.400;8.670;2022-07-01T04:13:06;2.08;;;0.90;;
12650;SDS011;6390;49.400;8.670;2022-07-01T04:15:32;1.00;;;0.70;;
12650;SDS011;6390;49.400;8.670;2022-07-01T04:17:59;0.75;;;0.75;;
12650;SDS011;6390;49.400;8.670;2022-07-01T04:20:25;1.13;;;0.82;;
12650;SDS011;6390;49.400;8.670;2022-07-01T04:22:51;1.30;;;1.20;;
12650;SDS011;6390;49.400;8.670;2022-07-01T04:25:17;1.60;;;1.40;;
12650;SDS011;6390;49.400;8.670;2022-07-01T04:27:43;1.95;;;1.27;;
12650;SDS011;6390;49.400;8.670;2022-07-01T04:30:09;1.20;;;1.00;;
12650;SDS011;6390;49.400;8.670;2022-07-01T04:32:37;1.58;;;1.30;;
12650;SDS011;6390;49.400;8.670;2022-07-01T04:35:03;1.35;;;1.20;;
12650;SDS011;6390;49.400;8.670;2022-07-01T04:37:29;1.33;;;1.05;;
12650;SDS011;6390;49.400;8.670;2022-07-01T04:39:55;1.30;;;1.20;;
12650;SDS011;6390;49.400;8.670;2022-07-01T04:42:22;2.03;;;0.90;;
12650;SDS011;6390;49.400;8.670;2022-07-01T04:44:48;1.00;;;0.90;;
12650;SDS011;6390;49.400;8.670;2022-07-01T04:47:14;0.60;;;0.60;;
12650;SDS011;6390;49.400;8.670;2022-07-01T04:49:40;0.80;;;0.80;;
12650;SDS011;6390;49.400;8.670;2022-07-01T04:52:06;0.70;;;0.70;;
12650;SDS011;6390;49.400;8.670;2022-07-01T04:54:33;1.65;;;1.08;;
12650;SDS011;6390;49.400;8.670;2022-07-01T04:56:59;1.85;;;1.00;;
12650;SDS011;6390;49.400;8.670;2022-07-01T04:59:25;1.50;;;1.13;;
12650;SDS011;6390;49.400;8.670;2022-07-01T05:01:51;2.33;;;1.10;;
12650;SDS011;6390;49.400;8.670;2022-07-01T05:04:17;1.73;;;1.20;;
12650;SDS011;6390;49.400;8.670;2022-07-01T05:06:45;2.10;;;1.33;;
12650;SDS011;6390;49.400;8.670;2022-07-01T05:09:11;2.10;;;1.42;;
12650;SDS011;6390;49.400;8.670;2022-07-01T05:11:38;2.05;;;1.58;;
12650;SDS011;6390;49.400;8.670;2022-07-01T05:14:04;2.05;;;1.38;;
12650;SDS011;6390;49.400;8.670;2022-07-01T05:16:31;1.45;;;1.33;;
12650;SDS011;6390;49.400;8.670;2022-07-01T05:18:58;1.65;;;1.15;;
12650;SDS011;6390;49.400;8.670;2022-07-01T05:21:43;1.08;;;1.02;;
12650;SDS011;6390;49.400;8.670;2022-07-01T05:24:22;1.20;;;0.90;;
12650;SDS011;6390;49.400;8.670;2022-07-01T05:26:49;0.70;;;0.70;;
12650;SDS011;6390;49.400;8.670;2022-07-01T05:29:15;1.20;;;0.88;;
12650;SDS011;6390;49.400;8.670;2022-07-01T05:31:42;1.00;;;0.95;;
12650;SDS011;6390;49.400;8.670;2022-07-01T05:34:08;1.02;;;0.88;;
12650;SDS011;6390;49.400;8.670;2022-07-01T05:36:34;1.10;;;0.95;;
12650;SDS011;6390;49.400;8.670;2022-07-01T05:39:00;1.10;;;0.90;;
12650;SDS011;6390;49.400;8.670;2022-07-01T05:41:27;0.70;;;0.70;;
12650;SDS011;6390;49.400;8.670;2022-07-01T05:43:53;0.80;;;0.80;;
12650;SDS011;6390;49.400;8.670;2022-07-01T05:46:19;1.27;;;0.95;;
12650;SDS011;6390;49.400;8.670;2022-07-01T05:48:46;2.22;;;0.90;;
12650;SDS011;6390;49.400;8.670;2022-07-01T05:51:12;0.80;;;0.80;;
12650;SDS011;6390;49.400;8.670;2022-07-01T05:53:38;1.60;;;0.95;;
12650;SDS011;6390;49.400;8.670;2022-07-01T05:56:04;1.55;;;0.90;;
12650;SDS011;6390;49.400;8.670;2022-07-01T05:58:30;1.63;;;0.95;;
12650;SDS011;6390;49.400;8.670;2022-07-01T06:00:56;0.82;;;0.82;;
12650;SDS011;6390;49.400;8.670;2022-07-01T06:03:23;0.70;;;0.70;;
12650;SDS011;6390;49.400;8.670;2022-07-01T06:05:49;1.00;;;1.00;;
12650;SDS011;6390;49.400;8.670;2022-07-01T06:08:15;0.80;;;0.80;;
12650;SDS011;6390;49.400;8.670;2022-07-01T06:10:41;1.13;;;1.00;;
12650;SDS011;6390;49.400;8.670;2022-07-01T06:13:07;1.15;;;1.05;;
12650;SDS011;6390;49.400;8.670;2022-07-01T06:15:34;1.20;;;0.90;;
12650;SDS011;6390;49.400;8.670;2022-07-01T06:18:00;0.80;;;0.80;;
12650;SDS011;6390;49.400;8.670;2022-07-01T06:20:29;1.15;;;1.05;;
12650;SDS011;6390;49.400;8.670;2022-07-01T06:22:55;1.27;;;1.17;;
12650;SDS011;6390;49.400;8.670;2022-07-01T06:25:22;1.00;;;1.00;;
12650;SDS011;6390;49.400;8.670;2022-07-01T06:27:49;1.38;;;0.90;;
12650;SDS011;6390;49.400;8.670;2022-07-01T06:30:15;1.23;;;1.10;;
12650;SDS011;6390;49.400;8.670;2022-07-01T06:32:41;1.17;;;1.02;;
12650;SDS011;6390;49.400;8.670;2022-07-01T06:35:07;1.30;;;1.00;;
12650;SDS011;6390;49.400;8.670;2022-07-01T06:37:34;1.83;;;1.33;;
12650;SDS011;6390;49.400;8.670;2022-07-01T06:40:01;1.50;;;1.23;;
12650;SDS011;6390;49.400;8.670;2022-07-01T06:42:29;2.78;;;1.30;;
12650;SDS011;6390;49.400;8.670;2022-07-01T06:44:55;1.27;;;1.17;;
12650;SDS011;6390;49.400;8.670;2022-07-01T06:47:21;1.30;;;1.13;;
12650;SDS011;6390;49.400;8.670;2022-07-01T06:49:47;2.05;;;1.27;;
12650;SDS011;6390;49.400;8.670;2022-07-01T06:52:14;1.80;;;1.20;;
12650;SDS011;6390;49.400;8.670;2022-07-01T06:54:40;1.23;;;1.13;;
12650;SDS011;6390;49.400;8.670;2022-07-01T06:57:06;2.53;;;1.10;;
12650;SDS011;6390;49.400;8.670;2022-07-01T06:59:32;1.77;;;1.20;;
12650;SDS011;6390;49.400;8.670;2022-07-01T07:01:59;1.10;;;1.00;;
12650;SDS011;6390;49.400;8.670;2022-07-01T07:04:25;1.20;;;1.10;;
12650;SDS011;6390;49.400;8.670;2022-07-01T07:06:51;2.80;;;1.08;;
12650;SDS011;6390;49.400;8.670;2022-07-01T07:09:17;1.60;;;1.30;;
12650;SDS011;6390;49.400;8.670;2022-07-01T07:11:43;2.35;;;1.20;;
12650;SDS011;6390;49.400;8.670;2022-07-01T07:14:09;1.08;;;0.98;;
12650;SDS011;6390;49.400;8.670;2022-07-01T07:16:36;0.75;;;0.75;;
12650;SDS011;6390;49.400;8.670;2022-07-01T07:19:03;1.20;;;1.10;;
12650;SDS011;6390;49.400;8.670;2022-07-01T07:21:29;1.20;;;0.95;;
12650;SDS011;6390;49.400;8.670;2022-07-01T07:23:55;1.55;;;1.13;;
12650;SDS011;6390;49.400;8.670;2022-07-01T07:26:21;1.05;;;0.95;;
12650;SDS011;6390;49.400;8.670;2022-07-01T07:28:47;1.27;;;1.10;;
12650;SDS011;6390;49.400;8.670;2022-07-01T07:31:14;1.77;;;1.17;;
12650;SDS011;6390;49.400;8.670;2022-07-01T07:33:40;1.20;;;1.10;;
12650;SDS011;6390;49.400;8.670;2022-07-01T07:36:06;2.50;;;1.13;;
12650;SDS011;6390;49.400;8.670;2022-07-01T07:38:32;1.10;;;1.00;;
12650;SDS011;6390;49.400;8.670;2022-07-01T07:41:01;0.90;;;0.90;;
12650;SDS011;6390;49.400;8.670;2022-07-01T07:43:29;0.98;;;0.93;;
12650;SDS011;6390;49.400;8.670;2022-07-01T07:45:55;1.33;;;0.90;;
12650;SDS011;6390;49.400;8.670;2022-07-01T07:48:21;0.88;;;0.88;;
12650;SDS011;6390;49.400;8.670;2022-07-01T07:50:48;1.30;;;1.02;;
12650;SDS011;6390;49.400;8.670;2022-07-01T07:53:14;2.38;;;1.00;;
12650;SDS011;6390;49.400;8.670;2022-07-01T07:55:41;1.35;;;0.95;;
12650;SDS011;6390;49.400;8.670;2022-07-01T07:58:07;1.90;;;1.00;;
12650;SDS011;6390;49.400;8.670;2022-07-01T08:00:33;1.40;;;1.20;;
12650;SDS011;6390;49.400;8.670;2022-07-01T08:02:59;0.93;;;0.93;;
12650;SDS011;6390;49.400;8.670;2022-07-01T08:05:26;1.20;;;1.10;;
12650;SDS011;6390;49.400;8.670;2022-07-01T08:07:52;0.95;;;0.95;;
12650;SDS011;6390;49.400;8.670;2022-07-01T08:10:18;1.10;;;1.00;;
12650;SDS011;6390;49.400;8.670;2022-07-01T08:12:44;1.17;;;1.08;;
12650;SDS011;6390;49.400;8.670;2022-07-01T08:15:10;1.13;;;1.02;;
12650;SDS011;6390;49.400;8.670;2022-07-01T08:17:36;1.30;;;1.20;;
12650;SDS011;6390;49.400;8.670;2022-07-01T08:20:02;1.73;;;1.05;;
12650;SDS011;6390;49.400;8.670;2022-07-01T08:22:29;1.08;;;1.00;;
12650;SDS011;6390;49.400;8.670;2022-07-01T08:24:55;1.08;;;0.90;;
12650;SDS011;6390;49.400;8.670;2022-07-01T08:27:21;0.82;;;0.82;;
12650;SDS011;6390;49.400;8.670;2022-07-01T08:29:47;1.27;;;1.00;;
12650;SDS011;6390;49.400;8.670;2022-07-01T08:32:14;1.10;;;1.00;;
12650;SDS011;6390;49.400;8.670;2022-07-01T08:34:41;1.95;;;1.20;;
12650;SDS011;6390;49.400;8.670;2022-07-01T08:37:07;1.20;;;1.10;;
12650;SDS011;6390;49.400;8.670;2022-07-01T08:39:33;1.42;;;1.10;;
12650;SDS011;6390;49.400;8.670;2022-07-01T08:41:59;1.45;;;1.35;;
12650;SDS011;6390;49.400;8.670;2022-07-01T08:44:25;1.23;;;1.13;;
12650;SDS011;6390;49.400;8.670;2022-07-01T08:46:51;2.65;;;1.38;;
12650;SDS011;6390;49.400;8.670;2022-07-01T08:49:18;1.38;;;1.10;;
12650;SDS011;6390;49.400;8.670;2022-07-01T08:51:44;1.40;;;1.30;;
12650;SDS011;6390;49.400;8.670;2022-07-01T08:54:10;1.60;;;1.50;;
12650;SDS011;6390;49.400;8.670;2022-07-01T08:56:36;1.40;;;1.30;;
12650;SDS011;6390;49.400;8.670;2022-07-01T08:59:06;1.75;;;1.40;;
12650;SDS011;6390;49.400;8.670;2022-07-01T09:01:33;1.42;;;1.33;;
12650;SDS011;6390;49.400;8.670;2022-07-01T09:04:18;1.33;;;1.23;;
12650;SDS011;6390;49.400;8.670;2022-07-01T09:06:45;1.30;;;1.20;;
12650;SDS011;6390;49.400;8.670;2022-07-01T09:09:16;1.50;;;1.40;;
12650;SDS011;6390;49.400;8.670;2022-07-01T09:11:49;1.50;;;1.40;;
12650;SDS011;6390;49.400;8.670;2022-07-01T09:14:30;1.35;;;1.00;;
12650;SDS011;6390;49.400;8.670;2022-07-01T09:16:59;0.90;;;0.90;;
12650;SDS011;6390;49.400;8.670;2022-07-01T09:19:37;1.23;;;0.90;;
12650;SDS011;6390;49.400;8.670;2022-07-01T09:22:04;0.93;;;0.90;;
12650;SDS011;6390;49.400;8.670;2022-07-01T09:24:37;0.80;;;0.80;;
12650;SDS011;6390;49.400;8.670;2022-07-01T09:27:08;1.58;;;1.20;;
12650;SDS011;6390;49.400;8.670;2022-07-01T09:29:45;0.93;;;0.90;;
12650;SDS011;6390;49.400;8.670;2022-07-01T09:32:17;1.45;;;0.95;;
12650;SDS011;6390;49.400;8.670;2022-07-01T09:34:46;1.00;;;0.90;;
12650;SDS011;6390;49.400;8.670;2022-07-01T09:37:15;1.05;;;0.85;;
12650;SDS011;6390;49.400;8.670;2022-07-01T09:42:20;0.80;;;0.80;;
12650;SDS011;6390;49.400;8.670;2022-07-01T09:47:32;0.80;;;0.80;;
12650;SDS011;6390;49.400;8.670;2022-07-01T09:50:00;0.60;;;0.60;;
12650;SDS011;6390;49.400;8.670;2022-07-01T09:52:28;0.60;;;0.60;;
12650;SDS011;6390;49.400;8.670;2022-07-01T09:54:54;0.90;;;0.80;;
12650;SDS011;6390;49.400;8.670;2022-07-01T09:57:20;2.83;;;1.20;;
12650;SDS011;6390;49.400;8.670;2022-07-01T09:59:47;1.15;;;0.93;;
12650;SDS011;6390;49.400;8.670;2022-07-01T10:02:14;1.08;;;0.90;;
12650;SDS011;6390;49.400;8.670;2022-07-01T10:04:46;0.90;;;0.90;;
12650;SDS011;6390;49.400;8.670;2022-07-01T10:13:43;1.33;;;1.15;;
12650;SDS011;6390;49.400;8.670;2022-07-01T10:16:09;1.05;;;0.88;;
12650;SDS011;6390;49.400;8.670;2022-07-01T10:18:36;1.27;;;1.10;;
12650;SDS011;6390;49.400;8.670;2022-07-01T10:21:02;1.00;;;0.90;;
12650;SDS011;6390;49.400;8.670;2022-07-01T10:23:42;1.35;;;0.88;;
12650;SDS011;6390;49.400;8.670;2022-07-01T10:26:09;2.97;;;0.80;;
12650;SDS011;6390;49.400;8.670;2022-07-01T10:31:15;1.75;;;1.10;;
12650;SDS011;6390;49.400;8.670;2022-07-01T10:41:29;2.20;;;1.00;;
12650;SDS011;6390;49.400;8.670;2022-07-01T10:44:07;0.90;;;0.90;;
12650;SDS011;6390;49.400;8.670;2022-07-01T10:49:19;1.00;;;0.80;;
12650;SDS011;6390;49.400;8.670;2022-07-01T10:52:09;1.15;;;1.00;;
12650;SDS011;6390;49.400;8.670;2022-07-01T11:02:17;1.00;;;1.00;;
12650;SDS011;6390;49.400;8.670;2022-07-01T11:05:16;1.00;;;0.90;;
12650;SDS011;6390;49.400;8.670;2022-07-01T11:07:44;1.63;;;1.00;;
12650;SDS011;6390;49.400;8.670;2022-07-01T11:10:12;1.55;;;0.95;;
12650;SDS011;6390;49.400;8.670;2022-07-01T11:12:41;1.55;;;1.00;;
12650;SDS011;6390;49.400;8.670;2022-07-01T11:15:09;1.27;;;0.98;;
12650;SDS011;6390;49.400;8.670;2022-07-01T11:17:36;1.00;;;0.82;;
12650;SDS011;6390;49.400;8.670;2022-07-01T11:20:11;1.08;;;1.00;;
12650;SDS011;6390;49.400;8.670;2022-07-01T11:22:38;1.40;;;0.95;;
12650;SDS011;6390;49.400;8.670;2022-07-01T11:25:06;1.15;;;0.80;;
12650;SDS011;6390;49.400;8.670;2022-07-01T11:27:34;2.28;;;1.00;;
12650;SDS011;6390;49.400;8.670;2022-07-01T11:30:03;1.00;;;0.82;;
12650;SDS011;6390;49.400;8.670;2022-07-01T11:32:34;2.28;;;1.00;;
12650;SDS011;6390;49.400;8.670;2022-07-01T11:35:03;1.20;;;1.10;;
12650;SDS011;6390;49.400;8.670;2022-07-01T11:37:51;1.27;;;1.17;;
12650;SDS011;6390;49.400;8.670;2022-07-01T11:40:36;1.17;;;1.08;;
12650;SDS011;6390;49.400;8.670;2022-07-01T11:43:02;1.45;;;1.15;;
12650;SDS011;6390;49.400;8.670;2022-07-01T11:45:44;1.60;;;1.50;;
12650;SDS011;6390;49.400;8.670;2022-07-01T11:48:10;1.63;;;1.35;;
12650;SDS011;6390;49.400;8.670;2022-07-01T11:50:36;3.38;;;1.40;;
12650;SDS011;6390;49.400;8.670;2022-07-01T11:53:03;2.10;;;1.48;;
12650;SDS011;6390;49.400;8.670;2022-07-01T11:55:31;1.40;;;1.30;;
12650;SDS011;6390;49.400;8.670;2022-07-01T11:57:57;1.38;;;1.27;;
12650;SDS011;6390;49.400;8.670;2022-07-01T12:00:24;2.33;;;1.23;;
12650;SDS011;6390;49.400;8.670;2022-07-01T12:02:59;1.38;;;0.98;;
12650;SDS011;6390;49.400;8.670;2022-07-01T12:05:25;3.03;;;0.82;;
12650;SDS011;6390;49.400;8.670;2022-07-01T12:07:51;1.88;;;0.80;;
12650;SDS011;6390;49.400;8.670;2022-07-01T12:10:17;1.92;;;0.90;;
12650;SDS011;6390;49.400;8.670;2022-07-01T12:12:49;1.00;;;0.90;;
12650;SDS011;6390;49.400;8.670;2022-07-01T12:15:15;3.22;;;1.00;;
12650;SDS011;6390;49.400;8.670;2022-07-01T12:17:42;1.00;;;1.00;;
12650;SDS011;6390;49.400;8.670;2022-07-01T12:20:08;1.02;;;0.90;;
12650;SDS011;6390;49.400;8.670;2022-07-01T12:22:34;1.10;;;1.00;;
12650;SDS011;6390;49.400;8.670;2022-07-01T12:25:10;0.82;;;0.82;;
12650;SDS011;6390;49.400;8.670;2022-07-01T12:27:39;1.85;;;1.30;;
12650;SDS011;6390;49.400;8.670;2022-07-01T12:30:09;2.35;;;1.25;;
12650;SDS011;6390;49.400;8.670;2022-07-01T12:32:39;1.38;;;1.13;;
12650;SDS011;6390;49.400;8.670;2022-07-01T12:35:08;1.17;;;1.08;;
12650;SDS011;6390;49.400;8.670;2022-07-01T12:37:54;1.23;;;0.90;;
12650;SDS011;6390;49.400;8.670;2022-07-01T12:40:22;0.88;;;0.85;;
12650;SDS011;6390;49.400;8.670;2022-07-01T12:42:49;2.25;;;1.00;;
12650;SDS011;6390;49.400;8.670;2022-07-01T12:45:17;0.80;;;0.80;;
12650;SDS011;6390;49.400;8.670;2022-07-01T12:47:49;1.35;;;1.00;;
12650;SDS011;6390;49.400;8.670;2022-07-01T12:50:21;0.90;;;0.90;;
12650;SDS011;6390;49.400;8.670;2022-07-01T12:53:07;0.85;;;0.80;;
12650;SDS011;6390;49.400;8.670;2022-07-01T12:55:43;0.90;;;0.90;;
12650;SDS011;6390;49.400;8.670;2022-07-01T12:58:29;1.02;;;0.93;;
12650;SDS011;6390;49.400;8.670;2022-07-01T13:00:55;1.20;;;1.00;;
12650;SDS011;6390;49.400;8.670;2022-07-01T13:03:23;1.10;;;1.00;;
12650;SDS011;6390;49.400;8.670;2022-07-01T13:05:51;0.80;;;0.80;;
12650;SDS011;6390;49.400;8.670;2022-07-01T13:08:19;1.92;;;1.05;;
12650;SDS011;6390;49.400;8.670;2022-07-01T13:10:46;0.90;;;0.90;;
12650;SDS011;6390;49.400;8.670;2022-07-01T13:13:13;1.10;;;1.00;;
12650;SDS011;6390;49.400;8.670;2022-07-01T13:15:42;1.02;;;0.93;;
12650;SDS011;6390;49.400;8.670;2022-07-01T13:18:09;1.67;;;1.02;;
12650;SDS011;6390;49.400;8.670;2022-07-01T13:20:38;1.42;;;0.90;;
12650;SDS011;6390;49.400;8.670;2022-07-01T13:23:05;2.00;;;1.00;;
12650;SDS011;6390;49.400;8.670;2022-07-01T13:25:31;1.20;;;1.10;;
12650;SDS011;6390;49.400;8.670;2022-07-01T13:27:57;1.67;;;0.75;;
12650;SDS011;6390;49.400;8.670;2022-07-01T13:30:24;0.73;;;0.73;;
12650;SDS011;6390;49.400;8.670;2022-07-01T13:32:50;1.25;;;0.90;;
12650;SDS011;6390;49.400;8.670;2022-07-01T13:35:18;1.17;;;1.08;;
12650;SDS011;6390;49.400;8.670;2022-07-01T13:37:46;1.30;;;1.20;;
12650;SDS011;6390;49.400;8.670;2022-07-01T13:40:13;1.75;;;1.00;;
12650;SDS011;6390;49.400;8.670;2022-07-01T13:42:40;1.23;;;1.13;;
12650;SDS011;6390;49.400;8.670;2022-07-01T13:45:06;1.83;;;1.10;;
12650;SDS011;6390;49.400;8.670;2022-07-01T13:47:33;0.90;;;0.90;;
12650;SDS011;6390;49.400;8.670;2022-07-01T13:50:00;0.93;;;0.90;;
12650;SDS011;6390;49.400;8.670;2022-07-01T13:52:26;1.13;;;1.02;;
12650;SDS011;6390;49.400;8.670;2022-07-01T13:54:55;1.13;;;0.80;;
12650;SDS011;6390;49.400;8.670;2022-07-01T13:57:22;1.88;;;1.02;;
12650;SDS011;6390;49.400;8.670;2022-07-01T13:59:49;1.27;;;1.00;;
12650;SDS011;6390;49.400;8.670;2022-07-01T14:02:15;1.52;;;0.65;;
12650;SDS011;6390;49.400;8.670;2022-07-01T14:04:43;0.90;;;0.90;;
12650;SDS011;6390;49.400;8.670;2022-07-01T14:07:10;1.00;;;0.90;;
12650;SDS011;6390;49.400;8.670;2022-07-01T14:09:36;0.80;;;0.80;;
12650;SDS011;6390;49.400;8.670;2022-07-01T14:12:05;0.85;;;0.85;;
12650;SDS011;6390;49.400;8.670;2022-07-01T14:14:32;1.00;;;0.90;;
12650;SDS011;6390;49.400;8.670;2022-07-01T14:16:58;1.80;;;0.82;;
12650;SDS011;6390;49.400;8.670;2022-07-01T14:19:24;0.98;;;0.88;;
12650;SDS011;6390;49.400;8.670;2022-07-01T14:21:51;1.30;;;1.00;;
12650;SDS011;6390;49.400;8.670;2022-07-01T14:24:19;0.80;;;0.80;;
12650;SDS011;6390;49.400;8.670;2022-07-01T14:26:45;0.90;;;0.90;;
12650;SDS011;6390;49.400;8.670;2022-07-01T14:29:12;0.98;;;0.88;;
12650;SDS011;6390;49.400;8.670;2022-07-01T14:31:38;1.25;;;0.80;;
12650;SDS011;6390;49.400;8.670;2022-07-01T14:34:04;0.80;;;0.77;;
12650;SDS011;6390;49.400;8.670;2022-07-01T14:36:30;1.95;;;0.90;;
12650;SDS011;6390;49.400;8.670;2022-07-01T14:38:56;1.20;;;0.90;;
12650;SDS011;6390;49.400;8.670;2022-07-01T14:41:22;0.65;;;0.65;;
12650;SDS011;6390;49.400;8.670;2022-07-01T14:43:48;1.60;;;0.93;;
12650;SDS011;6390;49.400;8.670;2022-07-01T14:46:15;0.80;;;0.60;;
12650;SDS011;6390;49.400;8.670;2022-07-01T14:48:41;1.05;;;0.80;;
12650;SDS011;6390;49.400;8.670;2022-07-01T14:51:07;1.05;;;0.80;;
12650;SDS011;6390;49.400;8.670;2022-07-01T14:53:33;0.70;;;0.50;;
12650;SDS011;6390;49.400;8.670;2022-07-01T14:56:00;0.73;;;0.70;;
12650;SDS011;6390;49.400;8.670;2022-07-01T14:58:26;0.93;;;0.80;;
12650;SDS011;6390;49.400;8.670;2022-07-01T15:00:53;1.02;;;0.80;;
12650;SDS011;6390;49.400;8.670;2022-07-01T15:03:19;1.48;;;0.63;;
12650;SDS011;6390;49.400;8.670;2022-07-01T15:05:45;0.70;;;0.70;;
12650;SDS011;6390;49.400;8.670;2022-07-01T15:08:11;1.20;;;0.63;;
12650;SDS011;6390;49.400;8.670;2022-07-01T15:10:39;2.00;;;0.80;;
12650;SDS011;6390;49.400;8.670;2022-07-01T15:13:05;4.07;;;0.70;;
12650;SDS011;6390;49.400;8.670;2022-07-01T15:15:31;0.57;;;0.57;;
12650;SDS011;6390;49.400;8.670;2022-07-01T15:17:57;0.85;;;0.73;;
12650;SDS011;6390;49.400;8.670;2022-07-01T15:20:23;0.85;;;0.85;;
12650;SDS011;6390;49.400;8.670;2022-07-01T15:22:49;0.90;;;0.73;;
12650;SDS011;6390;49.400;8.670;2022-07-01T15:25:16;0.50;;;0.50;;
12650;SDS011;6390;49.400;8.670;2022-07-01T15:27:44;0.50;;;0.50;;
12650;SDS011;6390;49.400;8.670;2022-07-01T15:30:10;0.60;;;0.60;;
12650;SDS011;6390;49.400;8.670;2022-07-01T15:32:36;2.33;;;0.73;;
12650;SDS011;6390;49.400;8.670;2022-07-01T15:35:03;1.67;;;0.60;;
12650;SDS011;6390;49.400;8.670;2022-07-01T15:37:30;0.70;;;0.70;;
12650;SDS011;6390;49.400;8.670;2022-07-01T15:39:57;0.60;;;0.60;;
12650;SDS011;6390;49.400;8.670;2022-07-01T15:42:24;0.95;;;0.70;;
12650;SDS011;6390;49.400;8.670;2022-07-01T15:44:51;0.60;;;0.60;;
12650;SDS011;6390;49.400;8.670;2022-07-01T15:47:17;0.75;;;0.65;;
12650;SDS011;6390;49.400;8.670;2022-07-01T15:50:02;1.00;;;0.63;;
12650;SDS011;6390;49.400;8.670;2022-07-01T15:52:28;1.27;;;0.68;;
12650;SDS011;6390;49.400;8.670;2022-07-01T15:54:55;0.63;;;0.52;;
12650;SDS011;6390;49.400;8.670;2022-07-01T15:57:21;0.90;;;0.70;;
12650;SDS011;6390;49.400;8.670;2022-07-01T15:59:47;0.63;;;0.63;;
12650;SDS011;6390;49.400;8.670;2022-07-01T16:02:13;0.60;;;0.60;;
12650;SDS011;6390;49.400;8.670;2022-07-01T16:04:39;2.83;;;0.80;;
12650;SDS011;6390;49.400;8.670;2022-07-01T16:07:08;0.82;;;0.68;;
12650;SDS011;6390;49.400;8.670;2022-07-01T16:09:38;1.50;;;0.60;;
12650;SDS011;6390;49.400;8.670;2022-07-01T16:12:06;0.68;;;0.68;;
12650;SDS011;6390;49.400;8.670;2022-07-01T16:14:32;0.80;;;0.60;;
12650;SDS011;6390;49.400;8.670;2022-07-01T16:17:00;0.75;;;0.75;;
12650;SDS011;6390;49.400;8.670;2022-07-01T16:19:28;0.50;;;0.50;;
12650;SDS011;6390;49.400;8.670;2022-07-01T16:21:55;0.57;;;0.55;;
12650;SDS011;6390;49.400;8.670;2022-07-01T16:24:24;0.55;;;0.55;;
12650;SDS011;6390;49.400;8.670;2022-07-01T16:26:50;0.73;;;0.70;;
12650;SDS011;6390;49.400;8.670;2022-07-01T16:29:16;1.00;;;0.70;;
12650;SDS011;6390;49.400;8.670;2022-07-01T16:31:43;0.60;;;0.50;;
12650;SDS011;6390;49.400;8.670;2022-07-01T16:34:10;0.80;;;0.70;;
12650;SDS011;6390;49.400;8.670;2022-07-01T16:36:36;0.50;;;0.50;;
12650;SDS011;6390;49.400;8.670;2022-07-01T16:39:12;2.05;;;0.80;;
12650;SDS011;6390;49.400;8.670;2022-07-01T16:41:59;0.63;;;0.55;;
12650;SDS011;6390;49.400;8.670;2022-07-01T16:44:34;0.75;;;0.60;;
12650;SDS011;6390;49.400;8.670;2022-07-01T16:47:16;0.90;;;0.70;;
12650;SDS011;6390;49.400;8.670;2022-07-01T16:49:50;0.57;;;0.57;;
12650;SDS011;6390;49.400;8.670;2022-07-01T16:52:17;0.60;;;0.60;;
12650;SDS011;6390;49.400;8.670;2022-07-01T16:54:49;0.57;;;0.57;;
12650;SDS011;6390;49.400;8.670;2022-07-01T16:57:23;0.70;;;0.70;;
12650;SDS011;6390;49.400;8.670;2022-07-01T16:59:52;1.15;;;0.70;;
12650;SDS011;6390;49.400;8.670;2022-07-01T17:02:19;0.52;;;0.52;;
12650;SDS011;6390;49.400;8.670;2022-07-01T17:04:46;0.47;;;0.40;;
12650;SDS011;6390;49.400;8.670;2022-07-01T17:07:15;0.50;;;0.50;;
12650;SDS011;6390;49.400;8.670;2022-07-01T17:09:41;0.57;;;0.57;;
12650;SDS011;6390;49.400;8.670;2022-07-01T17:12:13;0.80;;;0.55;;
12650;SDS011;6390;49.400;8.670;2022-07-01T17:14:42;0.60;;;0.40;;
12650;SDS011;6390;49.400;8.670;2022-07-01T17:17:14;0.90;;;0.70;;
12650;SDS011;6390;49.400;8.670;2022-07-01T17:19:42;1.33;;;0.90;;
12650;SDS011;6390;49.400;8.670;2022-07-01T17:22:12;1.17;;;0.85;;
12650;SDS011;6390;49.400;8.670;2022-07-01T17:24:54;0.68;;;0.55;;
12650;SDS011;6390;49.400;8.670;2022-07-01T17:30:13;0.57;;;0.55;;
12650;SDS011;6390;49.400;8.670;2022-07-01T17:32:47;0.70;;;0.70;;
12650;SDS011;6390;49.400;8.670;2022-07-01T17:35:16;2.13;;;0.82;;
12650;SDS011;6390;49.400;8.670;2022-07-01T17:37:47;0.68;;;0.50;;
12650;SDS011;6390;49.400;8.670;2022-07-01T17:40:14;1.35;;;0.50;;
12650;SDS011;6390;49.400;8.670;2022-07-01T17:42:44;0.70;;;0.70;;
12650;SDS011;6390;49.400;8.670;2022-07-01T17:45:13;1.38;;;0.90;;
12650;SDS011;6390;49.400;8.670;2022-07-01T17:47:39;0.63;;;0.60;;
12650;SDS011;6390;49.400;8.670;2022-07-01T17:50:09;0.75;;;0.68;;
12650;SDS011;6390;49.400;8.670;2022-07-01T17:52:35;0.68;;;0.60;;
12650;SDS011;6390;49.400;8.670;2022-07-01T17:55:03;0.80;;;0.80;;
12650;SDS011;6390;49.400;8.670;2022-07-01T17:57:30;1.90;;;0.57;;
12650;SDS011;6390;49.400;8.670;2022-07-01T17:59:56;0.75;;;0.70;;
12650;SDS011;6390;49.400;8.670;2022-07-01T18:02:22;0.90;;;0.80;;
12650;SDS011;6390;49.400;8.670;2022-07-01T18:04:48;0.70;;;0.70;;
12650;SDS011;6390;49.400;8.670;2022-07-01T18:07:15;1.83;;;1.15;;
12650;SDS011;6390;49.400;8.670;2022-07-01T18:09:42;0.68;;;0.68;;
12650;SDS011;6390;49.400;8.670;2022-07-01T18:12:12;1.02;;;1.00;;
12650;SDS011;6390;49.400;8.670;2022-07-01T18:17:39;2.10;;;1.10;;
12650;SDS011;6390;49.400;8.670;2022-07-01T18:26:14;0.52;;;0.50;;
12650;SDS011;6390;49.400;8.670;2022-07-01T18:28:45;0.60;;;0.60;;
12650;SDS011;6390;49.400;8.670;2022-07-01T18:31:19;0.82;;;0.73;;
12650;SDS011;6390;49.400;8.670;2022-07-01T18:36:50;0.95;;;0.80;;
12650;SDS011;6390;49.400;8.670;2022-07-01T18:39:24;0.68;;;0.63;;
12650;SDS011;6390;49.400;8.670;2022-07-01T18:41:51;0.85;;;0.80;;
12650;SDS011;6390;49.400;8.670;2022-07-01T18:44:17;0.70;;;0.70;;
12650;SDS011;6390;49.400;8.670;2022-07-01T18:46:44;1.38;;;0.80;;
12650;SDS011;6390;49.400;8.670;2022-07-01T18:49:10;1.65;;;0.77;;
12650;SDS011;6390;49.400;8.670;2022-07-01T18:51:36;0.50;;;0.50;;
12650;SDS011;6390;49.400;8.670;2022-07-01T18:54:02;0.80;;;0.80;;